Kezdőlap
METAR-TAF:

METAR-TAF

Repülőterek :

Csengtu, Kína

földrajzi szélesség: 30-40N, földrajzi hosszúság: 104-01E, magasság: 508 m

Jelenlegi meteorológiai megfigyelések

A jelentés 1 órával és 15 perccel ezelõtt készült, 23:00 UTC
Szélcsend
Hőmérséklet 16°C
Páratartalom 100%
Légköri nyomás 1018 hPa
Látótávolság: 3500 m
Szórványos felhőzet 3000 lábon
Párásság

METAR: ZUUU 242300Z 00000MPS 3500 BR SCT030 16/16 Q1018 BECMG TL2350 2700

Idő: 08:15 (00:15 UTC)

Előrejelzés

A jelentés 3 órával és 11 perccel ezelõtt készült, 21:04 UTC
Az előrejelzés 25-én 00 óra UTC és 25-én 24 óra UTC között érvényes
Észak-északkeleti szél 6 kt
Látótávolság: 3500 m
Szórványos felhőzet 5000 lábon
Száraz légköri homály

TAF: ZUUU 242104Z 2500/2524 02003MPS 3500 HZ SCT050 TX21/2507Z TN16/2522Z

Meteorológiai megfigyelések és előrejelzések több, mint 4000 repülőtéren (METAR és TAF jelentéseket).

A térképen piros és sárga pontok jelzik az elérhető meteorológiai állomásokat.

Mozgassa az egeret a pont fölött, hogy megjelenjen az állomás neve.

Azután kattintson az időjárási megfigyelések és előrejelzések megtekintéséhez.

A térkép megváltoztatása: kattintson a fekete keresztel jelölt zöld gombra ráközelítéshez, a vonallal jelölt zöld gombra távolításhoz, vagy a zöld nyilakra a szomszédos térképek eléréséhez.


METAR-TAF: